Time;durP1;ratioP1;P1;durP2;ratioP2;P2;SDS_P1;SDS_P2;PMS_P1;PMS_P2;Temp;Humidity;BMP_temperature;BMP_pressure;BME280_temperature;BME280_humidity;BME280_pressure;Samples;Min_cycle;Max_cycle;Signal;HPM_P1;HPM_P2
2021/11/25 00:02:09;;;;;;;13.07;10.27;;;8.10;99.90;;;;;;6122139;23;20620;-75
2021/11/25 00:04:35;;;;;;;13.13;10.50;;;8.10;99.90;;;;;;6122437;23;20574;-75
2021/11/25 00:07:03;;;;;;;13.63;9.33;;;8.10;99.90;;;;;;6123757;23;20600;-75
2021/11/25 00:09:29;;;;;;;14.17;10.63;;;8.10;99.90;;;;;;6123580;23;20169;-77
2021/11/25 00:11:55;;;;;;;13.63;9.77;;;8.10;99.90;;;;;;6123790;23;20590;-75
2021/11/25 00:14:21;;;;;;;12.10;9.77;;;7.90;99.90;;;;;;6123668;23;20593;-77
2021/11/25 00:16:50;;;;;;;13.63;10.93;;;8.00;99.90;;;;;;6125071;23;20561;-76
2021/11/25 00:19:21;;;;;;;11.40;9.93;;;7.80;99.90;;;;;;6125016;23;20547;-76
2021/11/25 00:21:47;;;;;;;11.20;9.17;;;8.00;99.90;;;;;;6122384;23;20604;-78
2021/11/25 00:24:13;;;;;;;11.50;10.30;;;8.00;99.90;;;;;;6123619;23;20607;-76
2021/11/25 00:26:39;;;;;;;11.70;9.47;;;7.80;99.90;;;;;;6125193;23;20950;-77
2021/11/25 00:29:08;;;;;;;11.00;9.40;;;8.00;99.90;;;;;;6126063;23;20526;-76
2021/11/25 00:31:37;;;;;;;12.43;9.60;;;8.00;99.90;;;;;;6124275;23;20616;-76
2021/11/25 00:34:16;;;;;;;11.80;9.70;;;8.00;99.90;;;;;;6130505;23;20558;-76
2021/11/25 00:36:42;;;;;;;11.87;9.63;;;7.90;99.90;;;;;;6138810;23;20573;-77
2021/11/25 00:39:08;;;;;;;11.93;10.27;;;7.90;99.90;;;;;;6136298;23;20605;-77
2021/11/25 00:41:34;;;;;;;11.10;9.67;;;8.10;99.90;;;;;;6135741;23;20585;-76
2021/11/25 00:44:00;;;;;;;11.20;9.80;;;7.90;99.90;;;;;;6124839;23;20566;-76
2021/11/25 00:49:16;;;;;;;13.30;10.30;;;8.00;99.90;;;;;;6124082;23;20241;-75
2021/11/25 00:51:45;;;;;;;12.20;9.70;;;7.90;99.90;;;;;;6122126;23;20943;-76
2021/11/25 00:54:13;;;;;;;12.77;10.50;;;7.70;99.90;;;;;;6123145;23;20558;-75
2021/11/25 00:56:39;;;;;;;13.20;10.73;;;7.90;99.90;;;;;;6124962;23;20748;-76
2021/11/25 00:59:04;;;;;;;11.07;9.20;;;8.00;99.90;;;;;;6125303;23;20907;-76
2021/11/25 01:01:30;;;;;;;14.43;11.30;;;7.90;99.90;;;;;;6123915;23;20269;-76
2021/11/25 01:03:58;;;;;;;11.47;10.17;;;8.00;99.90;;;;;;6124484;23;20158;-75
2021/11/25 01:06:24;;;;;;;11.53;10.30;;;8.00;99.90;;;;;;6124654;23;20174;-75
2021/11/25 01:08:56;;;;;;;13.30;10.47;;;8.00;99.90;;;;;;6123041;23;20573;-75
2021/11/25 01:11:25;;;;;;;13.03;10.30;;;8.10;99.90;;;;;;6124658;23;20577;-75
2021/11/25 01:13:54;;;;;;;12.00;9.67;;;8.00;99.90;;;;;;6125114;23;20986;-76
2021/11/25 01:16:23;;;;;;;13.50;10.47;;;8.00;99.90;;;;;;6126841;23;20598;-76
2021/11/25 01:18:51;;;;;;;11.97;10.13;;;8.00;99.90;;;;;;6126990;23;20534;-76
2021/11/25 01:21:17;;;;;;;12.93;10.80;;;8.00;99.90;;;;;;6123687;23;20645;-76
2021/11/25 01:23:43;;;;;;;13.30;10.27;;;8.00;99.90;;;;;;6127147;23;20530;-76
2021/11/25 01:26:11;;;;;;;13.63;11.23;;;8.00;99.90;;;;;;6126337;23;20597;-76
2021/11/25 01:28:40;;;;;;;15.60;12.30;;;8.10;99.90;;;;;;6126864;23;20534;-76
2021/11/25 01:31:08;;;;;;;16.07;11.83;;;8.10;99.90;;;;;;6149125;23;20573;-75
2021/11/25 01:33:34;;;;;;;12.60;10.40;;;8.10;99.90;;;;;;6126936;23;20534;-75
2021/11/25 01:36:01;;;;;;;14.23;10.50;;;8.10;99.90;;;;;;6126503;23;20593;-76
2021/11/25 01:38:28;;;;;;;13.30;10.73;;;8.10;99.90;;;;;;6125565;23;20238;-75
2021/11/25 01:40:56;;;;;;;13.03;11.63;;;8.10;99.90;;;;;;6126978;23;20534;-75
2021/11/25 01:43:25;;;;;;;13.50;10.80;;;8.00;99.90;;;;;;6125808;23;20623;-76
2021/11/25 01:45:56;;;;;;;13.27;11.40;;;8.00;99.90;;;;;;6124963;23;21134;-76
2021/11/25 01:48:25;;;;;;;14.20;12.10;;;8.00;99.90;;;;;;6127013;23;21103;-76
2021/11/25 01:50:54;;;;;;;15.63;11.00;;;8.00;99.90;;;;;;6125209;23;20794;-77
2021/11/25 01:53:23;;;;;;;13.93;11.80;;;8.00;99.90;;;;;;6148797;23;20632;-76
2021/11/25 01:55:51;;;;;;;16.13;12.70;;;8.00;99.90;;;;;;6126748;23;20581;-76
2021/11/25 01:58:26;;;;;;;13.67;11.53;;;8.10;99.90;;;;;;6124890;23;20570;-76
2021/11/25 02:00:54;;;;;;;14.67;11.80;;;8.10;99.90;;;;;;6125165;23;20553;-76
2021/11/25 02:03:22;;;;;;;16.00;12.40;;;8.00;99.90;;;;;;6124637;23;20753;-75
2021/11/25 02:05:51;;;;;;;13.50;11.67;;;8.00;99.90;;;;;;6149548;23;20570;-76
2021/11/25 02:08:19;;;;;;;13.63;11.77;;;8.00;99.90;;;;;;6125226;23;20574;-76
2021/11/25 02:10:48;;;;;;;13.23;11.30;;;8.10;99.90;;;;;;6127081;23;20542;-76
2021/11/25 02:13:17;;;;;;;12.40;11.10;;;8.00;99.90;;;;;;6124991;23;20604;-76
2021/11/25 02:15:47;;;;;;;12.40;10.63;;;8.00;99.90;;;;;;6124492;23;20631;-76
2021/11/25 02:18:19;;;;;;;13.53;10.60;;;8.10;99.90;;;;;;6126456;23;20669;-76
2021/11/25 02:20:58;;;;;;;15.07;10.97;;;8.10;99.90;;;;;;6124343;23;20632;-76
2021/11/25 02:23:27;;;;;;;13.30;11.40;;;8.10;99.90;;;;;;6125210;23;20605;-76
2021/11/25 02:25:55;;;;;;;13.60;11.03;;;8.00;99.90;;;;;;6125689;23;20625;-76
2021/11/25 02:28:26;;;;;;;12.60;10.13;;;8.00;99.90;;;;;;6126214;23;20577;-76
2021/11/25 02:30:53;;;;;;;13.70;10.90;;;8.00;99.90;;;;;;6126144;23;20506;-76
2021/11/25 02:33:21;;;;;;;14.50;10.50;;;8.00;99.90;;;;;;6122928;23;20701;-76
2021/11/25 02:35:47;;;;;;;12.90;11.37;;;8.00;99.90;;;;;;6123648;23;20731;-77
2021/11/25 02:38:16;;;;;;;12.73;10.90;;;7.90;99.90;;;;;;6125481;23;20535;-76
2021/11/25 02:40:49;;;;;;;11.87;10.13;;;8.00;99.90;;;;;;6148408;23;20600;-76
2021/11/25 02:43:24;;;;;;;12.40;10.17;;;7.80;99.90;;;;;;6124126;23;21092;-76
2021/11/25 02:46:00;;;;;;;13.30;11.90;;;8.00;99.90;;;;;;6123703;23;20569;-77
2021/11/25 02:48:32;;;;;;;11.77;10.13;;;8.00;99.90;;;;;;6125083;23;20573;-76
2021/11/25 02:51:00;;;;;;;12.47;10.60;;;7.90;99.90;;;;;;6125823;23;20558;-76
2021/11/25 02:53:31;;;;;;;11.50;9.97;;;7.90;99.90;;;;;;6124805;23;20997;-76
2021/11/25 02:55:59;;;;;;;12.17;10.83;;;7.90;99.90;;;;;;6125414;23;20601;-76
2021/11/25 02:58:26;;;;;;;12.83;10.80;;;7.90;99.90;;;;;;6123682;23;20908;-77
2021/11/25 03:00:59;;;;;;;11.13;9.93;;;8.00;99.90;;;;;;6125300;23;20542;-76
2021/11/25 03:03:27;;;;;;;11.60;10.27;;;7.90;99.90;;;;;;6122330;23;20617;-76
2021/11/25 03:05:55;;;;;;;13.70;10.83;;;8.00;99.90;;;;;;6123426;23;20896;-76
2021/11/25 03:08:23;;;;;;;11.37;10.20;;;7.90;99.90;;;;;;6123715;23;20575;-76
2021/11/25 03:11:02;;;;;;;12.60;11.30;;;7.90;99.90;;;;;;6123472;23;20566;-76
2021/11/25 03:13:28;;;;;;;12.20;10.67;;;7.90;99.90;;;;;;6121785;23;20597;-76
2021/11/25 03:15:56;;;;;;;10.57;9.30;;;7.90;99.90;;;;;;6124567;23;21170;-77
2021/11/25 03:18:26;;;;;;;11.80;10.60;;;7.90;99.90;;;;;;6124030;23;20566;-76
2021/11/25 03:20:57;;;;;;;11.90;10.53;;;7.90;99.90;;;;;;6123384;23;20554;-77
2021/11/25 03:23:26;;;;;;;11.27;10.07;;;7.80;99.90;;;;;;6124996;23;20934;-77
2021/11/25 03:25:54;;;;;;;11.07;9.90;;;7.80;99.90;;;;;;6147883;23;20605;-77
2021/11/25 03:28:20;;;;;;;12.37;11.00;;;7.80;99.90;;;;;;6123154;23;20574;-77
2021/11/25 03:30:53;;;;;;;12.03;10.83;;;7.80;99.90;;;;;;6148158;23;20600;-77
2021/11/25 03:33:20;;;;;;;13.93;11.33;;;7.80;99.90;;;;;;6122566;23;20197;-76
2021/11/25 03:35:51;;;;;;;12.13;10.93;;;7.70;99.90;;;;;;6123022;23;21202;-76
2021/11/25 03:38:17;;;;;;;12.13;10.93;;;7.70;99.90;;;;;;6123089;23;21123;-76
2021/11/25 03:40:45;;;;;;;11.60;9.53;;;7.70;99.90;;;;;;6125392;23;20617;-76
2021/11/25 03:43:11;;;;;;;10.53;9.43;;;7.70;99.90;;;;;;6122744;23;20594;-77
2021/11/25 03:45:42;;;;;;;11.83;10.30;;;7.70;99.90;;;;;;6123774;23;20576;-77
2021/11/25 03:48:11;;;;;;;11.87;10.23;;;7.70;99.90;;;;;;6124821;23;21167;-77
2021/11/25 03:50:36;;;;;;;12.30;10.60;;;7.70;99.90;;;;;;6125274;23;20625;-76
2021/11/25 03:53:03;;;;;;;14.10;11.63;;;7.60;99.90;;;;;;6122469;23;20922;-76
2021/11/25 03:55:28;;;;;;;12.80;10.90;;;7.60;99.90;;;;;;6123277;23;20182;-77
2021/11/25 03:57:54;;;;;;;12.20;10.90;;;7.60;99.90;;;;;;6125067;23;20566;-77
2021/11/25 04:00:21;;;;;;;12.80;11.00;;;7.60;99.90;;;;;;6123588;23;20489;-77
2021/11/25 04:02:53;;;;;;;12.30;11.00;;;7.60;99.90;;;;;;6123687;23;20272;-77
2021/11/25 04:05:18;;;;;;;15.27;10.77;;;7.70;99.90;;;;;;6124938;23;20518;-77
2021/11/25 04:07:47;;;;;;;12.87;11.10;;;7.70;99.90;;;;;;6124497;23;20883;-77
2021/11/25 04:10:14;;;;;;;13.07;11.67;;;7.70;99.90;;;;;;6122903;23;20604;-77
2021/11/25 04:12:43;;;;;;;14.10;11.97;;;7.70;99.90;;;;;;6122029;23;21179;-77
2021/11/25 04:15:10;;;;;;;14.00;11.40;;;7.70;99.90;;;;;;6122098;23;21002;-77
2021/11/25 04:17:39;;;;;;;12.63;10.90;;;7.60;99.90;;;;;;6122151;23;21147;-77
2021/11/25 04:20:12;;;;;;;11.97;10.77;;;7.60;99.90;;;;;;6124660;23;20910;-77
2021/11/25 04:22:38;;;;;;;12.40;11.10;;;7.70;99.90;;;;;;6123752;23;20598;-77
2021/11/25 04:25:10;;;;;;;14.10;11.00;;;7.60;99.90;;;;;;6124493;23;20542;-78
2021/11/25 04:27:36;;;;;;;12.30;10.73;;;7.50;99.90;;;;;;6124535;23;20681;-76
2021/11/25 04:30:49;;;;;;;13.63;11.63;;;7.60;99.90;;;;;;6123021;23;20611;-75
2021/11/25 04:35:46;;;;;;;12.87;10.93;;;7.60;99.90;;;;;;6124426;23;20994;-78
2021/11/25 04:38:16;;;;;;;13.33;11.67;;;7.60;99.90;;;;;;6122502;23;20558;-76
2021/11/25 04:40:49;;;;;;;12.80;11.23;;;7.60;99.90;;;;;;6122491;23;20562;-76
2021/11/25 04:43:18;;;;;;;12.10;10.90;;;7.60;99.90;;;;;;6121748;23;20594;-76
2021/11/25 04:45:46;;;;;;;13.43;11.40;;;7.60;99.90;;;;;;6124421;23;20531;-76
2021/11/25 04:48:19;;;;;;;14.00;11.50;;;7.60;99.90;;;;;;6124085;23;20598;-76
2021/11/25 04:50:45;;;;;;;12.50;11.27;;;7.60;99.90;;;;;;6126728;23;20589;-77
2021/11/25 04:53:12;;;;;;;12.97;11.30;;;7.50;99.90;;;;;;6124802;23;20601;-76
2021/11/25 04:55:42;;;;;;;12.47;10.90;;;7.60;99.90;;;;;;6125897;23;20597;-76
2021/11/25 04:58:11;;;;;;;13.60;11.87;;;7.60;99.90;;;;;;6125686;23;20936;-76
2021/11/25 05:00:37;;;;;;;14.03;11.20;;;7.60;99.90;;;;;;6124016;23;20657;-76
2021/11/25 05:03:03;;;;;;;13.70;11.80;;;7.60;99.90;;;;;;6123148;23;20596;-76
2021/11/25 05:05:31;;;;;;;13.07;11.70;;;7.60;99.90;;;;;;6123604;23;20582;-76
2021/11/25 05:07:57;;;;;;;15.10;12.80;;;7.60;99.90;;;;;;6149105;23;20190;-76
2021/11/25 05:10:25;;;;;;;14.53;12.53;;;7.60;99.90;;;;;;6125938;23;20553;-75
2021/11/25 05:12:56;;;;;;;15.10;12.00;;;7.50;99.90;;;;;;6124674;23;20206;-76
2021/11/25 05:15:22;;;;;;;15.07;11.73;;;7.50;99.90;;;;;;6125587;23;21111;-76
2021/11/25 05:17:50;;;;;;;15.97;12.70;;;7.60;99.90;;;;;;6123955;23;20592;-76
2021/11/25 05:20:16;;;;;;;14.80;13.20;;;7.60;99.90;;;;;;6123693;23;20159;-75
2021/11/25 05:22:46;;;;;;;14.87;11.73;;;7.60;99.90;;;;;;6123767;23;20744;-75
2021/11/25 05:25:15;;;;;;;13.73;11.50;;;7.60;99.90;;;;;;6123559;23;20504;-76
2021/11/25 05:27:42;;;;;;;15.37;11.67;;;7.50;99.90;;;;;;6124194;23;20637;-76
2021/11/25 05:30:13;;;;;;;14.37;12.53;;;7.50;99.90;;;;;;6124023;23;20944;-76
2021/11/25 05:32:40;;;;;;;15.90;12.53;;;7.50;99.90;;;;;;6133541;23;20601;-76
2021/11/25 05:35:06;;;;;;;15.80;12.23;;;7.40;99.90;;;;;;6137815;23;20956;-76
2021/11/25 05:37:34;;;;;;;14.47;12.87;;;7.40;99.90;;;;;;6141987;23;20594;-77
2021/11/25 05:40:02;;;;;;;15.10;13.00;;;7.40;99.90;;;;;;6142103;23;20587;-77
2021/11/25 05:42:30;;;;;;;16.20;12.57;;;7.40;99.90;;;;;;6141881;23;20610;-77
2021/11/25 05:44:57;;;;;;;13.97;12.23;;;7.40;99.90;;;;;;6141496;23;20913;-76
2021/11/25 05:47:33;;;;;;;16.20;12.70;;;7.40;99.90;;;;;;6130916;23;20610;-76
2021/11/25 05:50:04;;;;;;;16.73;13.50;;;7.40;99.90;;;;;;6126157;23;21110;-76
2021/11/25 05:52:31;;;;;;;15.30;12.70;;;7.40;99.90;;;;;;6125242;23;20597;-77
2021/11/25 05:54:56;;;;;;;15.53;12.67;;;7.40;99.90;;;;;;6127289;23;20593;-77
2021/11/25 05:57:22;;;;;;;15.87;13.73;;;7.30;99.90;;;;;;6124669;23;20738;-77
2021/11/25 05:59:48;;;;;;;16.33;13.43;;;7.30;99.90;;;;;;6125531;23;20158;-77
2021/11/25 06:02:15;;;;;;;16.43;13.10;;;7.40;99.90;;;;;;6129754;23;20217;-77
2021/11/25 06:04:43;;;;;;;15.47;12.80;;;7.40;99.90;;;;;;6126430;23;20541;-77
2021/11/25 06:07:11;;;;;;;16.57;12.83;;;7.40;99.90;;;;;;6123670;23;20610;-76
2021/11/25 06:09:37;;;;;;;16.03;12.50;;;7.40;99.90;;;;;;6125542;23;20972;-77
2021/11/25 06:12:05;;;;;;;15.07;12.90;;;7.50;99.90;;;;;;6123575;23;20622;-76
2021/11/25 06:14:32;;;;;;;15.57;13.10;;;7.40;99.90;;;;;;6119707;23;20566;-76
2021/11/25 06:17:03;;;;;;;16.93;12.80;;;7.40;99.90;;;;;;6146952;23;20665;-80
2021/11/25 06:19:32;;;;;;;14.10;12.70;;;7.50;99.90;;;;;;6122148;23;20593;-76
2021/11/25 06:21:58;;;;;;;15.00;12.53;;;7.50;99.90;;;;;;6120223;23;20601;-76
2021/11/25 06:24:24;;;;;;;13.93;11.57;;;7.50;99.90;;;;;;6118840;23;21135;-77
2021/11/25 06:26:50;;;;;;;14.77;13.03;;;7.40;99.90;;;;;;6119479;23;20617;-76
2021/11/25 06:29:17;;;;;;;17.50;13.37;;;7.40;99.90;;;;;;6121364;23;20578;-76
2021/11/25 06:31:44;;;;;;;14.80;12.10;;;7.40;99.90;;;;;;6121518;23;21100;-78
2021/11/25 06:34:10;;;;;;;16.47;13.33;;;7.40;99.90;;;;;;6122676;23;20557;-76
2021/11/25 06:36:37;;;;;;;18.07;13.07;;;7.40;99.90;;;;;;6121249;23;20650;-77
2021/11/25 06:39:04;;;;;;;14.93;12.80;;;7.50;99.90;;;;;;6128356;23;20526;-77
2021/11/25 06:41:30;;;;;;;15.43;12.90;;;7.50;99.90;;;;;;6135853;23;20993;-77
2021/11/25 06:43:55;;;;;;;15.90;12.60;;;7.50;99.90;;;;;;6138510;23;20542;-77
2021/11/25 06:46:24;;;;;;;13.93;12.50;;;7.50;99.90;;;;;;6139381;23;20174;-77
2021/11/25 06:48:50;;;;;;;16.03;13.80;;;7.50;99.90;;;;;;6132060;23;20174;-76
2021/11/25 06:51:30;;;;;;;15.60;13.13;;;7.50;99.90;;;;;;6127439;23;20918;-76
2021/11/25 06:53:55;;;;;;;14.90;12.43;;;7.40;99.90;;;;;;6125253;23;20155;-76
2021/11/25 06:56:36;;;;;;;15.90;13.07;;;7.40;99.90;;;;;;6124337;23;21128;-76
2021/11/25 06:59:06;;;;;;;16.20;13.20;;;7.30;99.90;;;;;;6124976;23;20146;-75
2021/11/25 07:01:32;;;;;;;17.33;14.07;;;7.30;99.90;;;;;;6121929;23;20593;-76
2021/11/25 07:03:57;;;;;;;16.30;14.50;;;7.30;99.90;;;;;;6124490;23;20621;-76
2021/11/25 07:06:23;;;;;;;19.20;13.90;;;7.40;99.90;;;;;;6122347;23;20186;-77
2021/11/25 07:08:48;;;;;;;21.17;15.10;;;7.30;99.90;;;;;;6122043;23;20166;-77
2021/11/25 07:11:14;;;;;;;24.13;15.03;;;7.30;99.90;;;;;;6122974;23;20197;-77
2021/11/25 07:13:40;;;;;;;20.07;14.20;;;7.30;99.90;;;;;;6123197;23;20581;-77
2021/11/25 07:18:41;;;;;;;19.13;14.63;;;7.30;99.90;;;;;;6105609;23;20648;-77
2021/11/25 07:21:07;;;;;;;20.10;15.30;;;7.30;99.90;;;;;;6118616;23;20566;-77
2021/11/25 07:23:36;;;;;;;20.33;15.97;;;7.30;99.90;;;;;;6121880;23;20555;-78
2021/11/25 07:26:07;;;;;;;19.47;15.60;;;7.30;99.90;;;;;;6121813;23;20559;-77
2021/11/25 07:28:36;;;;;;;18.43;14.77;;;7.40;99.90;;;;;;6122552;23;20617;-75
2021/11/25 07:31:05;;;;;;;20.40;15.17;;;7.40;99.90;;;;;;6120020;23;20634;-77
2021/11/25 07:33:31;;;;;;;20.13;15.10;;;7.20;99.90;;;;;;6121137;23;21095;-77
2021/11/25 07:35:57;;;;;;;19.83;14.80;;;7.50;99.90;;;;;;6119448;23;20952;-77
2021/11/25 07:38:23;;;;;;;18.63;15.13;;;7.50;99.90;;;;;;6120924;23;20578;-77
2021/11/25 07:41:00;;;;;;;19.80;15.10;;;7.30;99.90;;;;;;6120493;23;20600;-77
2021/11/25 07:43:27;;;;;;;20.67;15.80;;;7.50;99.90;;;;;;6119828;23;20186;-77
2021/11/25 07:45:53;;;;;;;23.50;16.30;;;7.40;99.90;;;;;;6121830;23;21087;-77
2021/11/25 07:48:19;;;;;;;20.97;16.50;;;7.30;99.90;;;;;;6119567;23;21095;-77
2021/11/25 07:50:48;;;;;;;22.30;16.17;;;7.40;99.90;;;;;;6121249;23;20863;-77
2021/11/25 07:53:14;;;;;;;24.57;16.73;;;7.30;99.90;;;;;;6120076;23;20637;-77
2021/11/25 07:55:40;;;;;;;22.33;16.90;;;7.50;99.90;;;;;;6120086;23;21008;-77
2021/11/25 07:58:06;;;;;;;21.90;16.90;;;7.50;99.90;;;;;;6121491;23;20597;-77
2021/11/25 08:00:32;;;;;;;23.23;16.80;;;7.30;99.90;;;;;;6119910;23;20200;-77
2021/11/25 08:03:00;;;;;;;24.63;17.17;;;7.50;99.90;;;;;;6119935;23;20194;-77
2021/11/25 08:05:27;;;;;;;22.60;16.57;;;7.30;99.90;;;;;;6121209;23;20155;-77
2021/11/25 08:08:00;;;;;;;24.80;18.90;;;7.40;99.90;;;;;;6121995;23;20701;-77
2021/11/25 08:10:28;;;;;;;22.13;17.47;;;7.40;99.90;;;;;;6122594;23;20641;-77
2021/11/25 08:13:03;;;;;;;23.70;17.03;;;7.40;99.90;;;;;;6118214;23;20590;-77
2021/11/25 08:15:30;;;;;;;25.70;17.90;;;7.20;99.90;;;;;;6122067;23;20597;-77
2021/11/25 08:18:00;;;;;;;24.83;17.10;;;7.10;99.90;;;;;;6123438;23;20640;-77
2021/11/25 08:20:27;;;;;;;25.13;17.83;;;7.40;99.90;;;;;;6123569;23;20495;-77
2021/11/25 08:22:53;;;;;;;24.50;18.47;;;7.20;99.90;;;;;;6121606;23;20604;-77
2021/11/25 08:25:23;;;;;;;25.87;18.73;;;7.30;99.90;;;;;;6124271;23;20542;-77
2021/11/25 08:27:51;;;;;;;26.50;18.63;;;7.30;99.90;;;;;;6123668;23;20589;-77
2021/11/25 08:30:18;;;;;;;26.77;19.47;;;7.10;99.90;;;;;;6121053;23;20896;-77
2021/11/25 08:32:44;;;;;;;26.83;19.27;;;7.20;99.90;;;;;;6122535;23;20601;-77
2021/11/25 08:35:11;;;;;;;27.13;19.30;;;7.10;99.90;;;;;;6121855;23;20598;-77
2021/11/25 08:37:41;;;;;;;27.13;18.63;;;7.20;99.90;;;;;;6121390;23;20581;-77
2021/11/25 08:40:11;;;;;;;28.17;19.50;;;7.50;99.90;;;;;;6121641;23;20573;-77
2021/11/25 08:42:40;;;;;;;25.20;19.10;;;7.20;99.90;;;;;;6140046;23;20693;-79
2021/11/25 08:45:08;;;;;;;28.83;19.20;;;7.40;99.90;;;;;;6135206;23;20588;-77
2021/11/25 08:47:36;;;;;;;21.90;18.17;;;7.40;99.90;;;;;;6123494;23;20582;-79
2021/11/25 08:50:04;;;;;;;27.97;20.40;;;7.30;99.90;;;;;;6121255;23;21087;-77
2021/11/25 08:52:32;;;;;;;26.67;19.30;;;7.40;99.90;;;;;;6122020;23;20605;-78
2021/11/25 08:54:58;;;;;;;29.00;20.27;;;7.50;99.90;;;;;;6121131;23;20754;-77
2021/11/25 08:57:24;;;;;;;27.10;19.10;;;7.50;99.90;;;;;;6120892;23;20609;-78
2021/11/25 08:59:50;;;;;;;29.73;20.03;;;7.60;99.90;;;;;;6121232;23;20159;-77
2021/11/25 09:02:16;;;;;;;25.00;18.73;;;7.60;99.90;;;;;;6122003;23;20945;-77
2021/11/25 09:04:42;;;;;;;31.70;20.83;;;7.70;99.90;;;;;;6121599;23;20605;-77
2021/11/25 09:07:07;;;;;;;27.43;20.27;;;7.70;99.90;;;;;;6120699;23;20921;-77
2021/11/25 09:09:34;;;;;;;30.97;20.40;;;7.50;99.90;;;;;;6122031;23;20594;-77
2021/11/25 09:12:00;;;;;;;26.37;20.43;;;7.70;99.90;;;;;;6122901;23;20557;-77
2021/11/25 09:14:25;;;;;;;27.80;20.70;;;7.60;99.90;;;;;;6147542;23;20656;-77
2021/11/25 09:16:51;;;;;;;29.13;20.20;;;7.40;99.90;;;;;;6133990;23;20577;-77
2021/11/25 09:19:17;;;;;;;26.63;19.70;;;7.70;99.90;;;;;;6144922;23;20658;-77
2021/11/25 09:21:43;;;;;;;27.93;20.17;;;7.70;99.90;;;;;;6122028;23;20213;-77
2021/11/25 09:24:09;;;;;;;28.20;21.17;;;7.70;99.90;;;;;;6121416;23;20182;-77
2021/11/25 09:26:37;;;;;;;25.50;19.63;;;7.60;99.90;;;;;;6122159;23;20182;-77
2021/11/25 09:29:08;;;;;;;26.13;19.47;;;7.70;99.90;;;;;;6120337;23;20657;-77
2021/11/25 09:31:34;;;;;;;28.70;20.93;;;7.60;99.90;;;;;;6120338;23;21070;-77
2021/11/25 09:34:01;;;;;;;33.57;22.53;;;7.60;99.90;;;;;;6144671;23;20736;-77
2021/11/25 09:36:29;;;;;;;29.03;20.70;;;7.50;99.90;;;;;;6122903;23;20709;-77
2021/11/25 09:38:55;;;;;;;27.17;20.30;;;7.60;99.90;;;;;;6120975;23;20565;-77
2021/11/25 09:41:22;;;;;;;28.43;20.70;;;7.70;99.90;;;;;;6121474;23;20582;-77
2021/11/25 09:43:48;;;;;;;32.23;21.13;;;7.50;99.90;;;;;;6123652;23;20534;-77
2021/11/25 09:46:19;;;;;;;32.10;22.77;;;7.60;99.90;;;;;;6124151;23;20620;-77
2021/11/25 09:48:49;;;;;;;29.73;21.40;;;7.50;99.90;;;;;;6122175;23;20632;-77
2021/11/25 09:51:16;;;;;;;29.90;21.67;;;7.40;99.90;;;;;;6122821;23;20498;-78
2021/11/25 09:53:42;;;;;;;29.60;22.87;;;7.60;99.90;;;;;;6123488;23;20879;-77
2021/11/25 09:56:08;;;;;;;30.60;22.00;;;7.60;99.90;;;;;;6121997;23;20633;-77
2021/11/25 09:58:36;;;;;;;32.27;21.83;;;7.40;99.90;;;;;;6125490;23;20565;-77
2021/11/25 10:01:09;;;;;;;30.33;23.37;;;7.60;99.90;;;;;;6120880;23;20565;-76
2021/11/25 10:03:38;;;;;;;28.80;21.53;;;7.80;99.90;;;;;;6103597;23;20527;-77
2021/11/25 10:06:04;;;;;;;30.67;22.13;;;7.70;99.90;;;;;;6096156;23;20565;-77
2021/11/25 10:08:49;;;;;;;27.93;22.80;;;7.70;99.90;;;;;;6094447;23;20582;-77
2021/11/25 10:11:24;;;;;;;32.60;21.30;;;7.60;99.90;;;;;;6092626;23;20559;-77
2021/11/25 10:13:56;;;;;;;29.10;22.13;;;7.60;99.90;;;;;;6095436;23;20586;-77
2021/11/25 10:16:30;;;;;;;31.50;22.20;;;7.60;99.90;;;;;;6095036;23;21014;-77
2021/11/25 10:18:58;;;;;;;29.60;22.30;;;7.90;99.90;;;;;;6093888;23;20988;-77
2021/11/25 10:21:27;;;;;;;32.13;21.77;;;7.80;99.90;;;;;;6093574;23;20617;-77
2021/11/25 10:23:55;;;;;;;30.90;21.33;;;7.90;99.90;;;;;;6096032;23;20638;-77
2021/11/25 10:26:24;;;;;;;32.40;22.60;;;7.90;99.90;;;;;;6093444;23;20605;-77
2021/11/25 10:28:59;;;;;;;32.93;21.80;;;8.00;99.90;;;;;;6093765;23;20710;-77
2021/11/25 10:31:44;;;;;;;30.13;23.10;;;8.00;99.90;;;;;;6092430;23;20717;-76
2021/11/25 10:34:21;;;;;;;31.40;23.07;;;7.70;99.90;;;;;;6093883;23;20602;-76
2021/11/25 10:42:32;;;;;;;33.73;22.43;;;7.90;99.90;;;;;;6093046;23;20657;-77
2021/11/25 10:45:10;;;;;;;30.90;23.10;;;8.00;99.90;;;;;;6092529;23;20567;-77
2021/11/25 10:47:35;;;;;;;31.93;22.97;;;7.60;99.90;;;;;;6092590;23;20941;-77
2021/11/25 10:50:07;;;;;;;31.30;23.20;;;7.90;99.90;;;;;;6092229;23;20586;-77
2021/11/25 10:52:44;;;;;;;32.10;23.40;;;7.70;99.90;;;;;;6093506;23;20242;-77
2021/11/25 10:55:17;;;;;;;34.13;21.97;;;7.70;99.90;;;;;;6094187;23;20607;-77
2021/11/25 10:58:04;;;;;;;33.97;23.87;;;7.90;99.90;;;;;;6097805;23;20715;-77
2021/11/25 11:00:36;;;;;;;32.13;22.70;;;8.00;99.90;;;;;;6097726;23;20503;-77
2021/11/25 11:03:09;;;;;;;33.73;24.50;;;8.00;99.90;;;;;;6096543;23;20606;-77
2021/11/25 11:06:07;;;;;;;32.77;23.17;;;7.80;99.90;;;;;;6096227;23;20578;-77
2021/11/25 11:08:46;;;;;;;37.27;24.20;;;8.00;99.90;;;;;;6112510;23;20912;-79
2021/11/25 11:11:13;;;;;;;32.67;23.27;;;8.00;99.90;;;;;;6099720;23;20574;-77
2021/11/25 11:14:00;;;;;;;36.23;25.90;;;8.00;99.90;;;;;;6103337;23;20578;-77
2021/11/25 11:16:29;;;;;;;37.87;24.30;;;8.20;99.90;;;;;;6102809;23;20211;-77
2021/11/25 11:18:58;;;;;;;35.43;25.47;;;8.00;99.90;;;;;;6100362;23;20597;-77
2021/11/25 11:21:41;;;;;;;36.83;24.83;;;8.00;99.90;;;;;;6095925;23;20583;-77
2021/11/25 11:24:26;;;;;;;40.00;26.00;;;8.00;99.90;;;;;;6095028;23;20590;-77
2021/11/25 11:27:07;;;;;;;38.87;26.20;;;8.00;99.90;;;;;;6092560;23;20585;-77
2021/11/25 11:29:36;;;;;;;35.03;25.50;;;7.90;99.90;;;;;;6102368;23;20504;-78
2021/11/25 11:32:05;;;;;;;39.40;26.40;;;7.90;99.90;;;;;;6107054;23;20617;-77
2021/11/25 11:34:31;;;;;;;39.53;24.90;;;8.00;99.90;;;;;;6114826;23;20654;-78
2021/11/25 11:36:58;;;;;;;40.43;26.93;;;8.00;99.90;;;;;;6115033;23;20563;-77
2021/11/25 11:39:27;;;;;;;41.70;26.37;;;8.00;99.90;;;;;;6115070;23;20578;-78
2021/11/25 11:42:00;;;;;;;38.23;25.10;;;8.10;99.90;;;;;;6112937;23;20626;-77
2021/11/25 11:44:26;;;;;;;36.47;26.37;;;7.90;99.90;;;;;;6116247;23;20918;-77
2021/11/25 11:47:02;;;;;;;38.10;25.97;;;7.90;99.90;;;;;;6112616;23;20583;-78
2021/11/25 11:49:29;;;;;;;37.07;26.53;;;7.70;99.90;;;;;;6115601;23;20570;-77
2021/11/25 11:52:04;;;;;;;41.13;26.40;;;7.90;99.90;;;;;;6113272;23;20591;-77
2021/11/25 11:54:40;;;;;;;43.17;26.07;;;7.70;99.90;;;;;;6100713;23;20610;-77
2021/11/25 11:57:32;;;;;;;38.20;26.60;;;8.00;99.90;;;;;;6101836;23;20602;-77
2021/11/25 12:00:03;;;;;;;41.53;27.57;;;7.70;99.90;;;;;;6099910;23;20571;-77
2021/11/25 12:02:40;;;;;;;36.30;25.63;;;7.80;99.90;;;;;;6095415;23;20657;-77
2021/11/25 12:05:13;;;;;;;37.67;26.30;;;7.70;99.90;;;;;;6112082;23;21036;-76
2021/11/25 12:07:41;;;;;;;39.97;26.00;;;7.80;99.90;;;;;;6111592;23;20686;-77
2021/11/25 12:10:09;;;;;;;37.87;24.63;;;7.80;99.90;;;;;;6116289;23;20545;-79
2021/11/25 12:12:35;;;;;;;34.40;24.10;;;7.80;99.90;;;;;;6111443;23;20610;-78
2021/11/25 12:15:03;;;;;;;36.30;24.90;;;7.70;99.90;;;;;;6114789;23;20622;-76
2021/11/25 12:17:33;;;;;;;37.20;25.20;;;7.70;99.90;;;;;;6096469;23;20682;-77
2021/11/25 12:20:18;;;;;;;36.33;24.23;;;7.70;99.90;;;;;;6100364;23;20571;-76
2021/11/25 12:22:51;;;;;;;37.20;23.70;;;7.80;99.90;;;;;;6093245;23;20595;-77
2021/11/25 12:25:40;;;;;;;36.00;25.23;;;7.80;99.90;;;;;;6096510;23;20567;-77
2021/11/25 12:28:18;;;;;;;37.80;23.00;;;7.80;99.90;;;;;;6092047;23;20595;-77
2021/11/25 12:30:52;;;;;;;35.10;23.40;;;7.80;99.90;;;;;;6091767;23;20589;-76
2021/11/25 12:33:40;;;;;;;38.10;23.90;;;7.80;99.90;;;;;;6090380;23;20609;-76
2021/11/25 12:36:07;;;;;;;33.93;23.63;;;7.70;99.90;;;;;;6089271;23;20606;-76
2021/11/25 12:38:35;;;;;;;32.50;23.40;;;7.80;99.90;;;;;;6091314;23;20559;-76
2021/11/25 12:41:05;;;;;;;33.33;23.17;;;7.80;99.90;;;;;;6089878;23;20622;-75
2021/11/25 12:43:37;;;;;;;31.63;21.20;;;7.80;99.90;;;;;;6089380;23;20559;-76
2021/11/25 12:46:06;;;;;;;30.47;21.40;;;7.80;99.90;;;;;;6113734;23;20611;-76
2021/11/25 12:48:38;;;;;;;29.77;22.13;;;7.90;99.90;;;;;;6091857;23;20543;-74
2021/11/25 12:51:35;;;;;;;29.73;21.40;;;7.90;99.90;;;;;;6089637;23;20853;-76
2021/11/25 12:54:05;;;;;;;27.17;20.30;;;7.90;99.90;;;;;;6079245;23;20776;-76
2021/11/25 12:56:34;;;;;;;28.40;20.40;;;7.90;99.90;;;;;;6091542;23;20637;-75
2021/11/25 12:59:09;;;;;;;27.90;20.73;;;7.90;99.90;;;;;;6090356;23;20638;-77
2021/11/25 13:01:40;;;;;;;31.23;21.03;;;7.90;99.90;;;;;;6088972;23;20601;-76
2021/11/25 13:04:16;;;;;;;30.60;21.57;;;7.90;99.90;;;;;;6093406;23;20908;-75